Time;durP1;ratioP1;P1;durP2;ratioP2;P2;SDS_P1;SDS_P2;PMS_P1;PMS_P2;Temp;Humidity;BMP_temperature;BMP_pressure;BME280_temperature;BME280_humidity;BME280_pressure;Samples;Min_cycle;Max_cycle;Signal;HPM_P1;HPM_P2
2022/09/27 00:06:40;;;;;;;0.20;0.10;;;18.40;99.90;;;;;;26053034;22;20195;-67
2022/09/27 00:16:45;;;;;;;0.20;0.10;;;18.40;99.90;;;;;;26078911;22;20203;-67
2022/09/27 00:26:50;;;;;;;0.20;0.00;;;18.30;99.90;;;;;;26078178;22;20215;-68
2022/09/27 00:36:55;;;;;;;0.20;0.00;;;17.90;99.90;;;;;;26050840;22;20215;-67
2022/09/27 00:47:02;;;;;;;0.20;0.10;;;17.40;99.90;;;;;;26051008;22;20168;-67
2022/09/27 00:57:08;;;;;;;0.20;0.00;;;17.00;99.90;;;;;;26077066;22;20237;-67
2022/09/27 01:07:12;;;;;;;0.20;0.00;;;16.60;99.90;;;;;;26076839;22;20239;-68
2022/09/27 01:17:30;;;;;;;0.20;0.10;;;16.50;99.90;;;;;;26076571;22;20286;-68
2022/09/27 01:28:13;;;;;;;0.20;0.10;;;16.70;99.90;;;;;;26076897;22;20179;-67
2022/09/27 01:38:25;;;;;;;0.20;0.10;;;16.60;99.90;;;;;;26076088;22;20218;-68
2022/09/27 01:48:33;;;;;;;0.20;0.10;;;16.50;99.90;;;;;;26075288;22;20156;-67
2022/09/27 01:58:44;;;;;;;0.20;0.00;;;16.40;99.90;;;;;;25947407;23;20200;-66
2022/09/27 02:08:52;;;;;;;0.20;0.00;;;16.00;99.90;;;;;;25947967;23;20201;-67
2022/09/27 02:19:08;;;;;;;0.20;0.10;;;15.80;99.90;;;;;;25946546;23;20230;-67
2022/09/27 02:29:15;;;;;;;0.20;0.10;;;16.00;99.90;;;;;;25946453;23;20169;-68
2022/09/27 02:39:21;;;;;;;0.20;0.10;;;16.10;99.90;;;;;;25946815;23;20187;-68
2022/09/27 02:49:42;;;;;;;0.20;0.10;;;15.90;99.90;;;;;;25947125;23;20233;-67
2022/09/27 02:59:53;;;;;;;0.20;0.10;;;16.20;99.90;;;;;;26069523;22;20246;-68
2022/09/27 03:09:57;;;;;;;0.20;0.10;;;16.10;99.90;;;;;;26082069;22;20242;-68
2022/09/27 03:20:03;;;;;;;0.20;0.10;;;16.20;99.90;;;;;;26055043;22;20242;-67
2022/09/27 03:30:08;;;;;;;0.20;0.00;;;16.20;99.90;;;;;;26080725;22;20171;-68
2022/09/27 03:40:13;;;;;;;0.20;0.10;;;16.10;99.90;;;;;;26080483;22;20180;-67
2022/09/27 03:50:17;;;;;;;0.20;0.10;;;15.90;99.90;;;;;;26080436;22;20209;-67
2022/09/27 04:00:23;;;;;;;0.20;0.10;;;16.10;99.90;;;;;;26079412;22;20217;-66
2022/09/27 04:10:27;;;;;;;0.20;0.00;;;15.80;99.90;;;;;;26078617;22;20226;-66
2022/09/27 04:20:32;;;;;;;0.20;0.10;;;15.60;99.90;;;;;;26078323;22;20253;-67
2022/09/27 04:30:36;;;;;;;0.20;0.00;;;15.70;99.90;;;;;;26051534;22;20233;-67
2022/09/27 04:40:41;;;;;;;0.20;0.10;;;15.60;99.90;;;;;;26076441;22;20258;-67
2022/09/27 04:50:44;;;;;;;0.20;0.00;;;15.50;99.90;;;;;;26076714;22;20187;-69
2022/09/27 05:00:51;;;;;;;0.20;0.10;;;15.80;99.90;;;;;;26075218;22;20191;-68
2022/09/27 05:10:55;;;;;;;0.20;0.00;;;16.00;99.90;;;;;;26074347;22;20279;-69
2022/09/27 05:21:00;;;;;;;0.20;0.10;;;15.80;99.90;;;;;;26073488;22;20243;-69
2022/09/27 05:31:04;;;;;;;0.20;0.10;;;15.60;99.90;;;;;;26046721;22;20264;-68
2022/09/27 05:41:10;;;;;;;0.20;0.00;;;15.70;99.90;;;;;;26072830;22;20180;-69
2022/09/27 05:51:14;;;;;;;0.20;0.00;;;15.40;99.90;;;;;;26068523;22;20244;-67
2022/09/27 06:01:19;;;;;;;0.20;0.03;;;15.00;99.90;;;;;;26064301;22;20180;-67
2022/09/27 06:11:24;;;;;;;0.20;0.10;;;14.80;99.90;;;;;;26067845;22;20184;-67
2022/09/27 06:21:30;;;;;;;0.20;0.00;;;14.50;99.90;;;;;;26067976;22;20195;-68
2022/09/27 06:31:33;;;;;;;0.20;0.00;;;14.20;99.90;;;;;;26044851;22;20169;-68
2022/09/27 06:41:38;;;;;;;0.20;0.10;;;15.00;99.90;;;;;;26052021;22;20196;-67
2022/09/27 06:51:42;;;;;;;0.20;0.00;;;15.40;99.90;;;;;;26076645;22;20216;-66
2022/09/27 07:01:48;;;;;;;0.20;0.00;;;15.90;99.90;;;;;;26075216;22;20184;-68
2022/09/27 07:11:54;;;;;;;0.20;0.00;;;16.20;99.90;;;;;;26074882;22;20187;-67
2022/09/27 07:21:59;;;;;;;0.20;0.10;;;16.40;99.90;;;;;;26076437;22;20275;-66
2022/09/27 07:32:03;;;;;;;0.20;0.00;;;16.70;99.90;;;;;;26076674;22;20206;-66
2022/09/27 07:42:08;;;;;;;0.20;0.10;;;17.10;99.90;;;;;;26048165;22;20706;-68
2022/09/27 07:52:12;;;;;;;0.20;0.10;;;17.50;99.90;;;;;;26022724;22;20196;-66
2022/09/27 08:02:18;;;;;;;0.20;0.00;;;18.00;99.90;;;;;;26046334;22;20263;-69
2022/09/27 08:12:22;;;;;;;0.20;0.00;;;18.50;99.90;;;;;;26072428;22;20190;-68
2022/09/27 08:22:27;;;;;;;0.20;0.10;;;19.00;99.90;;;;;;26071498;22;20188;-67
2022/09/27 08:32:31;;;;;;;0.20;0.10;;;19.50;99.90;;;;;;26043189;22;20176;-68
2022/09/27 08:42:48;;;;;;;0.20;0.00;;;19.80;99.90;;;;;;26072380;22;20263;-68
2022/09/27 08:52:57;;;;;;;0.20;0.00;;;20.10;99.90;;;;;;26071577;22;20195;-66
2022/09/27 09:03:03;;;;;;;0.20;0.00;;;20.70;99.90;;;;;;26035948;22;20207;-68
2022/09/27 09:13:14;;;;;;;0.20;0.00;;;21.20;99.90;;;;;;26063774;22;20180;-68
2022/09/27 09:23:42;;;;;;;0.20;0.00;;;21.90;99.90;;;;;;26067082;22;20171;-67
2022/09/27 09:33:51;;;;;;;0.20;0.10;;;23.10;99.90;;;;;;26028167;22;20168;-68
2022/09/27 09:44:01;;;;;;;0.20;0.00;;;22.80;99.90;;;;;;26042128;22;20188;-68
2022/09/27 09:54:14;;;;;;;0.20;0.00;;;22.70;99.90;;;;;;26043116;22;20187;-68
2022/09/27 10:04:22;;;;;;;0.20;0.10;;;22.20;99.90;;;;;;26046251;22;20152;-68
2022/09/27 10:14:27;;;;;;;0.20;0.00;;;22.60;99.90;;;;;;26083262;22;20243;-68
2022/09/27 10:24:54;;;;;;;0.20;0.00;;;23.50;99.90;;;;;;26057058;22;20209;-67
2022/09/27 10:35:22;;;;;;;0.20;0.00;;;22.90;99.90;;;;;;26056477;22;20195;-68
2022/09/27 10:45:33;;;;;;;0.20;0.05;;;23.80;99.90;;;;;;26081936;22;20164;-69
2022/09/27 10:55:38;;;;;;;0.20;0.00;;;23.50;99.90;;;;;;26055560;22;20195;-69
2022/09/27 11:05:44;;;;;;;0.20;0.00;;;24.10;99.90;;;;;;26082475;22;20278;-68
2022/09/27 11:16:02;;;;;;;0.20;0.00;;;23.70;99.90;;;;;;26079542;22;20236;-68
2022/09/27 11:26:21;;;;;;;0.20;0.05;;;24.50;99.90;;;;;;26074897;22;20174;-69
2022/09/27 11:36:40;;;;;;;0.20;0.00;;;24.00;99.90;;;;;;26075326;22;20225;-69
2022/09/27 11:46:52;;;;;;;0.20;0.00;;;24.30;99.90;;;;;;26073666;22;20191;-68
2022/09/27 11:57:05;;;;;;;0.20;0.00;;;25.70;99.90;;;;;;26047572;22;20204;-67
2022/09/27 12:07:18;;;;;;;0.20;0.10;;;26.90;99.90;;;;;;26075007;22;20195;-69
2022/09/27 12:17:26;;;;;;;0.20;0.00;;;26.90;99.90;;;;;;26069817;22;20235;-68
2022/09/27 12:27:37;;;;;;;0.20;0.00;;;27.20;99.90;;;;;;26069876;22;20160;-68
2022/09/27 12:37:45;;;;;;;0.20;0.00;;;26.60;99.90;;;;;;26062082;22;20199;-68
2022/09/27 12:48:04;;;;;;;0.20;0.00;;;25.20;99.90;;;;;;26066946;22;20172;-68
2022/09/27 12:58:32;;;;;;;0.20;0.00;;;26.00;99.90;;;;;;26071227;22;20218;-68
2022/09/27 13:09:06;;;;;;;0.20;0.00;;;25.30;99.90;;;;;;26071866;22;20195;-71
2022/09/27 13:19:38;;;;;;;0.20;0.00;;;28.10;99.90;;;;;;26057242;22;20230;-68
2022/09/27 13:29:43;;;;;;;0.20;0.00;;;28.40;99.90;;;;;;26044335;22;20180;-67
2022/09/27 13:39:46;;;;;;;0.20;0.00;;;27.80;99.90;;;;;;26044235;22;20184;-69
2022/09/27 13:49:54;;;;;;;0.20;0.00;;;29.10;99.90;;;;;;26070993;22;20156;-68
2022/09/27 14:00:03;;;;;;;0.20;0.00;;;29.10;99.90;;;;;;26070470;22;20283;-68
2022/09/27 14:10:14;;;;;;;0.20;0.00;;;27.50;99.90;;;;;;26042792;22;20199;-69
2022/09/27 14:20:37;;;;;;;0.20;0.00;;;29.60;99.90;;;;;;26069105;22;20295;-69
2022/09/27 14:30:42;;;;;;;0.20;0.00;;;25.40;99.90;;;;;;26043324;22;20187;-69
2022/09/27 14:40:59;;;;;;;0.20;0.00;;;24.20;99.90;;;;;;26069573;22;20215;-68
2022/09/27 14:51:19;;;;;;;0.20;0.00;;;27.70;99.90;;;;;;26071849;22;20188;-69
2022/09/27 15:01:23;;;;;;;0.20;0.00;;;29.40;99.90;;;;;;26076021;22;20210;-72
2022/09/27 15:11:31;;;;;;;0.20;0.00;;;29.30;99.90;;;;;;26047322;22;20183;-70
2022/09/27 15:21:37;;;;;;;0.20;0.00;;;29.30;99.90;;;;;;26048369;22;20172;-70
2022/09/27 15:31:42;;;;;;;0.20;0.10;;;28.90;99.90;;;;;;26047978;22;20156;-69
2022/09/27 15:42:03;;;;;;;0.20;0.00;;;28.60;99.90;;;;;;26074872;22;20183;-68
2022/09/27 15:52:41;;;;;;;0.20;0.00;;;28.40;99.90;;;;;;26073729;22;20234;-69
2022/09/27 16:02:45;;;;;;;0.20;0.00;;;26.80;99.90;;;;;;26071901;22;20854;-68
2022/09/27 16:12:50;;;;;;;0.20;0.00;;;24.50;99.90;;;;;;26046492;22;20200;-68
2022/09/27 16:22:55;;;;;;;0.20;0.00;;;24.20;99.90;;;;;;26074483;22;20208;-69
2022/09/27 16:33:00;;;;;;;0.20;0.10;;;23.70;99.90;;;;;;26073187;22;20156;-69
2022/09/27 16:43:05;;;;;;;0.20;0.00;;;23.60;99.90;;;;;;26043324;22;20234;-69
2022/09/27 16:53:12;;;;;;;0.20;0.00;;;23.50;99.90;;;;;;26042060;22;20226;-71
2022/09/27 17:03:15;;;;;;;0.20;0.10;;;23.20;99.90;;;;;;26067509;22;20180;-70
2022/09/27 17:13:21;;;;;;;0.20;0.00;;;23.20;99.90;;;;;;26070894;22;20183;-69
2022/09/27 17:23:25;;;;;;;0.20;0.00;;;22.90;99.90;;;;;;26069061;22;20183;-70
2022/09/27 17:33:30;;;;;;;0.20;0.00;;;22.80;99.90;;;;;;26043766;22;20238;-68
2022/09/27 17:43:35;;;;;;;0.20;0.00;;;22.40;99.90;;;;;;26042865;22;20211;-68
2022/09/27 17:53:40;;;;;;;0.20;0.10;;;22.30;99.90;;;;;;26069851;22;20821;-68
2022/09/27 18:03:44;;;;;;;0.20;0.00;;;22.20;99.90;;;;;;26069291;22;20211;-68
2022/09/27 18:13:49;;;;;;;0.20;0.00;;;22.00;99.90;;;;;;26068801;22;20248;-69
2022/09/27 18:23:55;;;;;;;0.20;0.00;;;21.90;99.90;;;;;;26043087;22;20247;-69
2022/09/27 18:34:01;;;;;;;0.20;0.00;;;21.90;99.90;;;;;;26078674;22;20168;-66
2022/09/27 18:44:06;;;;;;;0.20;0.00;;;21.80;99.90;;;;;;26051436;22;20172;-69
2022/09/27 18:54:15;;;;;;;0.20;0.00;;;21.70;99.90;;;;;;26076732;22;20204;-66
2022/09/27 19:04:23;;;;;;;0.20;0.10;;;21.70;99.90;;;;;;26047361;22;20176;-69
2022/09/27 19:14:28;;;;;;;0.20;0.00;;;21.60;99.90;;;;;;26074215;22;20216;-68
2022/09/27 19:24:32;;;;;;;0.20;0.00;;;21.60;99.90;;;;;;26074757;22;20205;-68
2022/09/27 19:34:37;;;;;;;0.20;0.00;;;21.70;99.90;;;;;;26046242;22;20178;-68
2022/09/27 19:44:41;;;;;;;0.20;0.00;;;21.50;99.90;;;;;;26073314;22;20260;-69
2022/09/27 19:54:46;;;;;;;0.20;0.00;;;21.50;99.90;;;;;;26073824;22;20240;-69
2022/09/27 20:04:50;;;;;;;0.20;0.00;;;21.40;99.90;;;;;;26048561;22;20279;-69
2022/09/27 20:14:55;;;;;;;0.20;0.10;;;21.10;99.90;;;;;;26075953;22;20206;-69
2022/09/27 20:24:59;;;;;;;0.20;0.00;;;19.90;99.90;;;;;;26078078;22;20215;-69
2022/09/27 20:35:04;;;;;;;0.20;0.10;;;19.70;99.90;;;;;;26078385;22;20160;-69
2022/09/27 20:45:08;;;;;;;0.20;0.10;;;19.40;99.90;;;;;;26077366;22;20190;-69
2022/09/27 20:55:14;;;;;;;0.20;0.00;;;19.10;99.90;;;;;;26075730;22;20234;-69
2022/09/27 21:05:17;;;;;;;0.20;0.10;;;19.00;99.90;;;;;;26075586;22;20216;-68
2022/09/27 21:15:22;;;;;;;0.20;0.00;;;18.80;99.90;;;;;;26075309;22;20176;-67
2022/09/27 21:25:26;;;;;;;0.20;0.00;;;18.60;99.90;;;;;;26075678;22;20195;-68
2022/09/27 21:35:31;;;;;;;0.20;0.00;;;18.40;99.90;;;;;;26076388;22;20167;-68
2022/09/27 21:45:35;;;;;;;0.20;0.00;;;18.20;99.90;;;;;;26075682;22;20230;-68
2022/09/27 21:55:40;;;;;;;0.20;0.00;;;18.30;99.90;;;;;;26075492;22;20211;-68
2022/09/27 22:05:46;;;;;;;0.20;0.00;;;18.30;99.90;;;;;;26075537;22;20219;-68
2022/09/27 22:15:51;;;;;;;0.20;0.00;;;18.20;99.90;;;;;;26075495;22;20167;-68
2022/09/27 22:25:55;;;;;;;0.20;0.00;;;18.30;99.90;;;;;;26075274;22;20188;-68
2022/09/27 22:36:01;;;;;;;0.20;0.10;;;18.40;99.90;;;;;;26074732;22;20187;-68
2022/09/27 22:46:05;;;;;;;0.20;0.00;;;18.20;99.90;;;;;;26075140;22;20225;-68
2022/09/27 22:56:13;;;;;;;0.20;0.00;;;18.20;99.90;;;;;;26048025;22;20287;-68
2022/09/27 23:06:19;;;;;;;0.20;0.00;;;18.30;99.90;;;;;;26075039;22;20208;-68
2022/09/27 23:16:24;;;;;;;0.20;0.00;;;18.30;99.90;;;;;;26053524;22;20164;-69
2022/09/27 23:26:28;;;;;;;0.20;0.00;;;18.40;99.90;;;;;;26055613;22;20172;-68
2022/09/27 23:36:34;;;;;;;0.20;0.00;;;18.30;99.90;;;;;;26081786;22;20198;-68
2022/09/27 23:46:38;;;;;;;0.20;0.10;;;18.40;99.90;;;;;;26080992;22;20188;-68
2022/09/27 23:56:43;;;;;;;0.20;0.10;;;18.40;99.90;;;;;;26080872;22;20192;-68
